sensor_id;sensor_type;location;lat;lon;timestamp;P1;durP1;ratioP1;P2;durP2;ratioP2
39256;SDS011;67272;48.066;11.038;2023-02-28T00:01:26;1.83;;;1.67;;
39256;SDS011;67272;48.066;11.038;2023-02-28T00:03:52;2.30;;;1.87;;
39256;SDS011;67272;48.066;11.038;2023-02-28T00:06:18;0.80;;;0.80;;
39256;SDS011;67272;48.066;11.038;2023-02-28T00:08:51;1.67;;;1.50;;
39256;SDS011;67272;48.066;11.038;2023-02-28T00:11:17;1.80;;;1.60;;
39256;SDS011;67272;48.066;11.038;2023-02-28T00:13:44;1.80;;;1.30;;
39256;SDS011;67272;48.066;11.038;2023-02-28T00:16:12;1.23;;;1.13;;
39256;SDS011;67272;48.066;11.038;2023-02-28T00:18:40;1.83;;;1.50;;
39256;SDS011;67272;48.066;11.038;2023-02-28T00:21:06;2.87;;;1.73;;
39256;SDS011;67272;48.066;11.038;2023-02-28T00:23:35;2.37;;;1.90;;
39256;SDS011;67272;48.066;11.038;2023-02-28T00:26:05;1.40;;;1.30;;
39256;SDS011;67272;48.066;11.038;2023-02-28T00:28:31;1.87;;;1.50;;
39256;SDS011;67272;48.066;11.038;2023-02-28T00:30:57;2.03;;;1.77;;
39256;SDS011;67272;48.066;11.038;2023-02-28T00:33:25;2.70;;;1.50;;
39256;SDS011;67272;48.066;11.038;2023-02-28T00:35:51;2.60;;;1.40;;
39256;SDS011;67272;48.066;11.038;2023-02-28T00:38:17;1.63;;;1.30;;
39256;SDS011;67272;48.066;11.038;2023-02-28T00:40:49;2.50;;;1.90;;
39256;SDS011;67272;48.066;11.038;2023-02-28T00:43:15;2.10;;;1.83;;
39256;SDS011;67272;48.066;11.038;2023-02-28T00:45:41;1.77;;;1.57;;
39256;SDS011;67272;48.066;11.038;2023-02-28T00:48:14;1.43;;;1.20;;
39256;SDS011;67272;48.066;11.038;2023-02-28T00:50:41;2.20;;;1.87;;
39256;SDS011;67272;48.066;11.038;2023-02-28T00:53:10;1.53;;;1.27;;
39256;SDS011;67272;48.066;11.038;2023-02-28T00:55:36;0.60;;;0.60;;
39256;SDS011;67272;48.066;11.038;2023-02-28T00:58:05;1.37;;;1.20;;
39256;SDS011;67272;48.066;11.038;2023-02-28T01:00:31;2.20;;;1.47;;
39256;SDS011;67272;48.066;11.038;2023-02-28T01:02:57;2.67;;;1.90;;
39256;SDS011;67272;48.066;11.038;2023-02-28T01:05:23;1.57;;;1.20;;
39256;SDS011;67272;48.066;11.038;2023-02-28T01:07:49;1.77;;;1.60;;
39256;SDS011;67272;48.066;11.038;2023-02-28T01:10:15;1.57;;;1.47;;
39256;SDS011;67272;48.066;11.038;2023-02-28T01:12:42;2.50;;;1.93;;
39256;SDS011;67272;48.066;11.038;2023-02-28T01:15:10;3.03;;;1.73;;
39256;SDS011;67272;48.066;11.038;2023-02-28T01:17:39;2.67;;;2.00;;
39256;SDS011;67272;48.066;11.038;2023-02-28T01:20:08;3.50;;;2.13;;
39256;SDS011;67272;48.066;11.038;2023-02-28T01:22:34;2.50;;;1.50;;
39256;SDS011;67272;48.066;11.038;2023-02-28T01:25:04;3.07;;;2.03;;
39256;SDS011;67272;48.066;11.038;2023-02-28T01:27:30;2.53;;;1.80;;
39256;SDS011;67272;48.066;11.038;2023-02-28T01:29:56;2.40;;;1.83;;
39256;SDS011;67272;48.066;11.038;2023-02-28T01:32:22;3.40;;;2.33;;
39256;SDS011;67272;48.066;11.038;2023-02-28T01:34:51;2.93;;;1.90;;
39256;SDS011;67272;48.066;11.038;2023-02-28T01:37:17;2.93;;;1.97;;
39256;SDS011;67272;48.066;11.038;2023-02-28T01:39:43;3.10;;;2.10;;
39256;SDS011;67272;48.066;11.038;2023-02-28T01:42:13;2.00;;;1.77;;
39256;SDS011;67272;48.066;11.038;2023-02-28T01:47:27;2.43;;;1.60;;
39256;SDS011;67272;48.066;11.038;2023-02-28T01:49:54;2.07;;;0.70;;
39256;SDS011;67272;48.066;11.038;2023-02-28T01:52:30;2.13;;;1.93;;
39256;SDS011;67272;48.066;11.038;2023-02-28T01:55:03;2.37;;;2.10;;
39256;SDS011;67272;48.066;11.038;2023-02-28T01:57:46;2.40;;;1.80;;
39256;SDS011;67272;48.066;11.038;2023-02-28T02:00:15;2.47;;;1.90;;
39256;SDS011;67272;48.066;11.038;2023-02-28T02:02:42;2.67;;;1.90;;
39256;SDS011;67272;48.066;11.038;2023-02-28T02:05:10;2.37;;;1.80;;
39256;SDS011;67272;48.066;11.038;2023-02-28T02:07:38;4.13;;;2.17;;
39256;SDS011;67272;48.066;11.038;2023-02-28T02:10:12;1.80;;;1.27;;
39256;SDS011;67272;48.066;11.038;2023-02-28T02:23:33;1.77;;;1.53;;
39256;SDS011;67272;48.066;11.038;2023-02-28T02:28:46;2.53;;;2.00;;
39256;SDS011;67272;48.066;11.038;2023-02-28T02:31:27;1.73;;;1.53;;
39256;SDS011;67272;48.066;11.038;2023-02-28T02:34:08;1.03;;;0.97;;
39256;SDS011;67272;48.066;11.038;2023-02-28T02:41:51;2.70;;;2.20;;
39256;SDS011;67272;48.066;11.038;2023-02-28T02:47:15;1.20;;;1.10;;
39256;SDS011;67272;48.066;11.038;2023-02-28T02:49:51;4.53;;;1.90;;
39256;SDS011;67272;48.066;11.038;2023-02-28T02:52:18;2.27;;;1.43;;
39256;SDS011;67272;48.066;11.038;2023-02-28T02:54:52;2.53;;;1.97;;
39256;SDS011;67272;48.066;11.038;2023-02-28T02:57:22;2.37;;;2.13;;
39256;SDS011;67272;48.066;11.038;2023-02-28T02:59:52;1.50;;;1.27;;
39256;SDS011;67272;48.066;11.038;2023-02-28T03:02:19;4.23;;;2.07;;
39256;SDS011;67272;48.066;11.038;2023-02-28T03:04:53;1.70;;;1.60;;
39256;SDS011;67272;48.066;11.038;2023-02-28T03:07:28;2.97;;;2.40;;
39256;SDS011;67272;48.066;11.038;2023-02-28T03:09:57;2.27;;;1.93;;
39256;SDS011;67272;48.066;11.038;2023-02-28T03:12:26;1.93;;;1.57;;
39256;SDS011;67272;48.066;11.038;2023-02-28T03:15:11;1.90;;;1.30;;
39256;SDS011;67272;48.066;11.038;2023-02-28T03:17:49;1.43;;;1.03;;
39256;SDS011;67272;48.066;11.038;2023-02-28T03:20:27;2.60;;;2.30;;
39256;SDS011;67272;48.066;11.038;2023-02-28T03:25:32;3.00;;;2.20;;
39256;SDS011;67272;48.066;11.038;2023-02-28T03:28:12;2.50;;;2.17;;
39256;SDS011;67272;48.066;11.038;2023-02-28T03:30:51;4.20;;;2.10;;
39256;SDS011;67272;48.066;11.038;2023-02-28T03:33:20;4.20;;;2.33;;
39256;SDS011;67272;48.066;11.038;2023-02-28T03:35:58;3.90;;;2.60;;
39256;SDS011;67272;48.066;11.038;2023-02-28T03:41:10;2.97;;;2.43;;
39256;SDS011;67272;48.066;11.038;2023-02-28T03:43:38;2.27;;;2.00;;
39256;SDS011;67272;48.066;11.038;2023-02-28T03:46:11;2.83;;;1.93;;
39256;SDS011;67272;48.066;11.038;2023-02-28T03:48:46;2.90;;;1.83;;
39256;SDS011;67272;48.066;11.038;2023-02-28T03:51:18;3.00;;;2.30;;
39256;SDS011;67272;48.066;11.038;2023-02-28T03:53:52;1.77;;;1.67;;
39256;SDS011;67272;48.066;11.038;2023-02-28T03:56:22;2.77;;;2.30;;
39256;SDS011;67272;48.066;11.038;2023-02-28T03:58:57;1.80;;;1.50;;
39256;SDS011;67272;48.066;11.038;2023-02-28T04:01:28;5.97;;;2.57;;
39256;SDS011;67272;48.066;11.038;2023-02-28T04:03:56;2.63;;;2.17;;
39256;SDS011;67272;48.066;11.038;2023-02-28T04:06:29;2.33;;;2.00;;
39256;SDS011;67272;48.066;11.038;2023-02-28T04:08:56;1.43;;;1.33;;
39256;SDS011;67272;48.066;11.038;2023-02-28T04:11:23;2.20;;;1.80;;
39256;SDS011;67272;48.066;11.038;2023-02-28T04:13:53;2.30;;;2.10;;
39256;SDS011;67272;48.066;11.038;2023-02-28T04:16:19;2.57;;;2.13;;
39256;SDS011;67272;48.066;11.038;2023-02-28T04:18:45;0.87;;;0.77;;
39256;SDS011;67272;48.066;11.038;2023-02-28T04:21:12;3.20;;;2.87;;
39256;SDS011;67272;48.066;11.038;2023-02-28T04:23:41;2.43;;;2.03;;
39256;SDS011;67272;48.066;11.038;2023-02-28T04:26:07;6.77;;;4.77;;
39256;SDS011;67272;48.066;11.038;2023-02-28T04:28:39;3.90;;;2.83;;
39256;SDS011;67272;48.066;11.038;2023-02-28T04:31:11;12.17;;;8.03;;
39256;SDS011;67272;48.066;11.038;2023-02-28T04:33:38;4.17;;;2.50;;
39256;SDS011;67272;48.066;11.038;2023-02-28T04:36:05;2.90;;;2.50;;
39256;SDS011;67272;48.066;11.038;2023-02-28T04:38:32;3.17;;;2.90;;
39256;SDS011;67272;48.066;11.038;2023-02-28T04:40:59;5.13;;;3.37;;
39256;SDS011;67272;48.066;11.038;2023-02-28T04:43:26;4.17;;;2.97;;
39256;SDS011;67272;48.066;11.038;2023-02-28T04:45:52;4.10;;;3.03;;
39256;SDS011;67272;48.066;11.038;2023-02-28T04:48:28;5.43;;;3.50;;
39256;SDS011;67272;48.066;11.038;2023-02-28T04:50:55;6.47;;;3.93;;
39256;SDS011;67272;48.066;11.038;2023-02-28T04:53:21;5.30;;;3.53;;
39256;SDS011;67272;48.066;11.038;2023-02-28T04:55:47;5.83;;;4.37;;
39256;SDS011;67272;48.066;11.038;2023-02-28T04:58:13;4.47;;;3.67;;
39256;SDS011;67272;48.066;11.038;2023-02-28T05:00:40;5.43;;;4.17;;
39256;SDS011;67272;48.066;11.038;2023-02-28T05:03:06;3.53;;;3.20;;
39256;SDS011;67272;48.066;11.038;2023-02-28T05:05:44;2.77;;;2.57;;
39256;SDS011;67272;48.066;11.038;2023-02-28T05:08:10;1.83;;;1.53;;
39256;SDS011;67272;48.066;11.038;2023-02-28T05:10:39;4.33;;;2.77;;
39256;SDS011;67272;48.066;11.038;2023-02-28T05:13:10;4.33;;;3.40;;
39256;SDS011;67272;48.066;11.038;2023-02-28T05:15:37;3.60;;;2.90;;
39256;SDS011;67272;48.066;11.038;2023-02-28T05:18:03;4.07;;;3.10;;
39256;SDS011;67272;48.066;11.038;2023-02-28T05:20:29;3.37;;;2.87;;
39256;SDS011;67272;48.066;11.038;2023-02-28T05:22:56;5.70;;;3.80;;
39256;SDS011;67272;48.066;11.038;2023-02-28T05:25:26;4.57;;;3.30;;
39256;SDS011;67272;48.066;11.038;2023-02-28T05:27:52;3.17;;;2.87;;
39256;SDS011;67272;48.066;11.038;2023-02-28T05:30:18;3.97;;;3.23;;
39256;SDS011;67272;48.066;11.038;2023-02-28T05:32:49;5.80;;;4.27;;
39256;SDS011;67272;48.066;11.038;2023-02-28T05:35:16;2.50;;;1.83;;
39256;SDS011;67272;48.066;11.038;2023-02-28T05:37:42;5.23;;;3.97;;
39256;SDS011;67272;48.066;11.038;2023-02-28T05:40:08;2.40;;;1.77;;
39256;SDS011;67272;48.066;11.038;2023-02-28T05:42:37;4.53;;;3.37;;
39256;SDS011;67272;48.066;11.038;2023-02-28T05:45:04;3.13;;;2.43;;
39256;SDS011;67272;48.066;11.038;2023-02-28T05:47:31;5.07;;;3.57;;
39256;SDS011;67272;48.066;11.038;2023-02-28T05:49:58;4.47;;;3.27;;
39256;SDS011;67272;48.066;11.038;2023-02-28T05:52:24;6.03;;;4.17;;
39256;SDS011;67272;48.066;11.038;2023-02-28T05:54:50;4.63;;;3.10;;
39256;SDS011;67272;48.066;11.038;2023-02-28T05:57:16;3.03;;;2.37;;
39256;SDS011;67272;48.066;11.038;2023-02-28T05:59:42;3.00;;;2.20;;
39256;SDS011;67272;48.066;11.038;2023-02-28T06:02:12;6.37;;;3.47;;
39256;SDS011;67272;48.066;11.038;2023-02-28T06:04:39;7.57;;;3.57;;
39256;SDS011;67272;48.066;11.038;2023-02-28T06:07:18;3.27;;;2.87;;
39256;SDS011;67272;48.066;11.038;2023-02-28T06:09:44;8.00;;;5.10;;
39256;SDS011;67272;48.066;11.038;2023-02-28T06:12:11;5.23;;;3.60;;
39256;SDS011;67272;48.066;11.038;2023-02-28T06:14:43;3.83;;;3.07;;
39256;SDS011;67272;48.066;11.038;2023-02-28T06:17:12;4.20;;;3.80;;
39256;SDS011;67272;48.066;11.038;2023-02-28T06:19:41;4.47;;;2.90;;
39256;SDS011;67272;48.066;11.038;2023-02-28T06:22:12;1.47;;;0.97;;
39256;SDS011;67272;48.066;11.038;2023-02-28T06:24:41;3.63;;;3.03;;
39256;SDS011;67272;48.066;11.038;2023-02-28T06:27:11;5.13;;;3.57;;
39256;SDS011;67272;48.066;11.038;2023-02-28T06:29:37;10.17;;;5.40;;
39256;SDS011;67272;48.066;11.038;2023-02-28T06:32:04;4.83;;;3.70;;
39256;SDS011;67272;48.066;11.038;2023-02-28T06:34:31;6.03;;;4.40;;
39256;SDS011;67272;48.066;11.038;2023-02-28T06:36:59;6.17;;;4.33;;
39256;SDS011;67272;48.066;11.038;2023-02-28T06:39:31;6.33;;;5.30;;
39256;SDS011;67272;48.066;11.038;2023-02-28T06:41:57;3.27;;;2.93;;
39256;SDS011;67272;48.066;11.038;2023-02-28T06:44:23;4.80;;;3.13;;
39256;SDS011;67272;48.066;11.038;2023-02-28T06:46:50;8.83;;;5.17;;
39256;SDS011;67272;48.066;11.038;2023-02-28T06:49:16;5.87;;;4.97;;
39256;SDS011;67272;48.066;11.038;2023-02-28T06:51:45;6.80;;;3.80;;
39256;SDS011;67272;48.066;11.038;2023-02-28T06:54:14;4.43;;;3.90;;
39256;SDS011;67272;48.066;11.038;2023-02-28T06:56:40;4.57;;;3.00;;
39256;SDS011;67272;48.066;11.038;2023-02-28T06:59:06;3.97;;;3.67;;
39256;SDS011;67272;48.066;11.038;2023-02-28T07:01:32;4.87;;;4.00;;
39256;SDS011;67272;48.066;11.038;2023-02-28T07:03:58;5.50;;;4.43;;
39256;SDS011;67272;48.066;11.038;2023-02-28T07:06:25;4.07;;;2.90;;
39256;SDS011;67272;48.066;11.038;2023-02-28T07:08:57;9.73;;;5.93;;
39256;SDS011;67272;48.066;11.038;2023-02-28T07:11:24;8.63;;;5.80;;
39256;SDS011;67272;48.066;11.038;2023-02-28T07:13:54;4.60;;;2.93;;
39256;SDS011;67272;48.066;11.038;2023-02-28T07:16:21;5.67;;;1.97;;
39256;SDS011;67272;48.066;11.038;2023-02-28T07:18:47;3.83;;;2.43;;
39256;SDS011;67272;48.066;11.038;2023-02-28T07:21:13;8.13;;;4.97;;
39256;SDS011;67272;48.066;11.038;2023-02-28T07:23:42;12.07;;;6.03;;
39256;SDS011;67272;48.066;11.038;2023-02-28T07:26:13;5.70;;;3.43;;
39256;SDS011;67272;48.066;11.038;2023-02-28T07:28:40;6.53;;;4.83;;
39256;SDS011;67272;48.066;11.038;2023-02-28T07:31:08;8.23;;;5.33;;
39256;SDS011;67272;48.066;11.038;2023-02-28T07:33:34;9.73;;;6.53;;
39256;SDS011;67272;48.066;11.038;2023-02-28T07:36:04;8.57;;;6.33;;
39256;SDS011;67272;48.066;11.038;2023-02-28T07:38:31;7.83;;;4.53;;
39256;SDS011;67272;48.066;11.038;2023-02-28T07:40:57;6.43;;;4.50;;
39256;SDS011;67272;48.066;11.038;2023-02-28T07:43:26;6.67;;;5.20;;
39256;SDS011;67272;48.066;11.038;2023-02-28T07:45:53;5.80;;;4.13;;
39256;SDS011;67272;48.066;11.038;2023-02-28T07:48:19;6.93;;;4.97;;
39256;SDS011;67272;48.066;11.038;2023-02-28T07:50:45;7.73;;;4.17;;
39256;SDS011;67272;48.066;11.038;2023-02-28T07:53:20;5.83;;;4.03;;
39256;SDS011;67272;48.066;11.038;2023-02-28T07:55:47;5.53;;;3.63;;
39256;SDS011;67272;48.066;11.038;2023-02-28T07:58:13;4.70;;;4.00;;
39256;SDS011;67272;48.066;11.038;2023-02-28T08:00:39;7.50;;;4.23;;
39256;SDS011;67272;48.066;11.038;2023-02-28T08:03:05;2.53;;;2.33;;
39256;SDS011;67272;48.066;11.038;2023-02-28T08:05:31;5.40;;;3.20;;
39256;SDS011;67272;48.066;11.038;2023-02-28T08:07:57;6.93;;;5.37;;
39256;SDS011;67272;48.066;11.038;2023-02-28T08:10:24;10.77;;;7.07;;
39256;SDS011;67272;48.066;11.038;2023-02-28T08:12:50;10.83;;;6.53;;
39256;SDS011;67272;48.066;11.038;2023-02-28T08:15:16;6.53;;;2.43;;
39256;SDS011;67272;48.066;11.038;2023-02-28T08:17:42;6.50;;;4.13;;
39256;SDS011;67272;48.066;11.038;2023-02-28T08:20:08;4.53;;;3.17;;
39256;SDS011;67272;48.066;11.038;2023-02-28T08:22:35;7.93;;;5.67;;
39256;SDS011;67272;48.066;11.038;2023-02-28T08:25:01;7.37;;;5.43;;
39256;SDS011;67272;48.066;11.038;2023-02-28T08:27:27;7.27;;;4.83;;
39256;SDS011;67272;48.066;11.038;2023-02-28T08:29:53;3.30;;;2.67;;
39256;SDS011;67272;48.066;11.038;2023-02-28T08:32:20;8.00;;;4.87;;
39256;SDS011;67272;48.066;11.038;2023-02-28T08:34:46;8.20;;;5.43;;
39256;SDS011;67272;48.066;11.038;2023-02-28T08:37:12;9.53;;;5.97;;
39256;SDS011;67272;48.066;11.038;2023-02-28T08:39:38;8.73;;;6.50;;
39256;SDS011;67272;48.066;11.038;2023-02-28T08:42:04;4.70;;;3.43;;
39256;SDS011;67272;48.066;11.038;2023-02-28T08:44:30;8.30;;;6.03;;
39256;SDS011;67272;48.066;11.038;2023-02-28T08:46:56;7.03;;;5.77;;
39256;SDS011;67272;48.066;11.038;2023-02-28T08:49:22;4.33;;;3.70;;
39256;SDS011;67272;48.066;11.038;2023-02-28T08:51:48;9.27;;;6.77;;
39256;SDS011;67272;48.066;11.038;2023-02-28T08:54:15;8.03;;;5.77;;
39256;SDS011;67272;48.066;11.038;2023-02-28T08:56:44;11.63;;;7.93;;
39256;SDS011;67272;48.066;11.038;2023-02-28T08:59:11;5.97;;;3.90;;
39256;SDS011;67272;48.066;11.038;2023-02-28T09:01:38;4.27;;;2.57;;
39256;SDS011;67272;48.066;11.038;2023-02-28T09:04:04;5.67;;;4.10;;
39256;SDS011;67272;48.066;11.038;2023-02-28T09:06:32;11.07;;;5.30;;
39256;SDS011;67272;48.066;11.038;2023-02-28T09:08:58;8.27;;;6.07;;
39256;SDS011;67272;48.066;11.038;2023-02-28T09:11:26;9.03;;;5.80;;
39256;SDS011;67272;48.066;11.038;2023-02-28T09:13:52;4.73;;;3.30;;
39256;SDS011;67272;48.066;11.038;2023-02-28T09:16:18;6.10;;;5.10;;
39256;SDS011;67272;48.066;11.038;2023-02-28T09:18:44;9.73;;;5.60;;
39256;SDS011;67272;48.066;11.038;2023-02-28T09:21:11;7.73;;;6.60;;
39256;SDS011;67272;48.066;11.038;2023-02-28T09:23:41;11.98;;;10.00;;
39256;SDS011;67272;48.066;11.038;2023-02-28T09:26:08;9.37;;;7.33;;
39256;SDS011;67272;48.066;11.038;2023-02-28T09:28:38;11.10;;;7.93;;
39256;SDS011;67272;48.066;11.038;2023-02-28T09:31:04;9.47;;;5.83;;
39256;SDS011;67272;48.066;11.038;2023-02-28T09:33:30;6.80;;;5.17;;
39256;SDS011;67272;48.066;11.038;2023-02-28T09:35:57;8.47;;;6.77;;
39256;SDS011;67272;48.066;11.038;2023-02-28T09:38:24;7.67;;;4.90;;
39256;SDS011;67272;48.066;11.038;2023-02-28T09:40:51;11.20;;;7.90;;
39256;SDS011;67272;48.066;11.038;2023-02-28T09:43:17;7.80;;;6.27;;
39256;SDS011;67272;48.066;11.038;2023-02-28T09:45:50;11.40;;;8.70;;
39256;SDS011;67272;48.066;11.038;2023-02-28T09:48:19;9.50;;;7.53;;
39256;SDS011;67272;48.066;11.038;2023-02-28T09:50:48;6.87;;;5.37;;
39256;SDS011;67272;48.066;11.038;2023-02-28T09:53:18;9.40;;;7.40;;
39256;SDS011;67272;48.066;11.038;2023-02-28T09:55:47;9.87;;;7.20;;
39256;SDS011;67272;48.066;11.038;2023-02-28T09:58:22;7.80;;;5.77;;
39256;SDS011;67272;48.066;11.038;2023-02-28T10:00:52;6.77;;;5.03;;
39256;SDS011;67272;48.066;11.038;2023-02-28T10:03:40;6.70;;;5.57;;
39256;SDS011;67272;48.066;11.038;2023-02-28T10:08:42;8.10;;;5.97;;
39256;SDS011;67272;48.066;11.038;2023-02-28T10:11:12;12.43;;;10.30;;
39256;SDS011;67272;48.066;11.038;2023-02-28T10:13:46;10.13;;;7.60;;
39256;SDS011;67272;48.066;11.038;2023-02-28T10:16:21;10.10;;;7.30;;
39256;SDS011;67272;48.066;11.038;2023-02-28T10:18:50;12.10;;;7.60;;
39256;SDS011;67272;48.066;11.038;2023-02-28T10:21:21;8.40;;;6.27;;
39256;SDS011;67272;48.066;11.038;2023-02-28T10:23:49;10.67;;;8.33;;
39256;SDS011;67272;48.066;11.038;2023-02-28T10:26:16;11.53;;;8.07;;
39256;SDS011;67272;48.066;11.038;2023-02-28T10:28:43;8.40;;;6.67;;
39256;SDS011;67272;48.066;11.038;2023-02-28T10:31:11;7.20;;;4.00;;
39256;SDS011;67272;48.066;11.038;2023-02-28T10:33:41;10.63;;;7.73;;
39256;SDS011;67272;48.066;11.038;2023-02-28T10:36:08;10.23;;;7.00;;
39256;SDS011;67272;48.066;11.038;2023-02-28T10:38:38;9.70;;;7.00;;
39256;SDS011;67272;48.066;11.038;2023-02-28T10:43:33;6.20;;;4.50;;
39256;SDS011;67272;48.066;11.038;2023-02-28T10:46:03;5.97;;;4.93;;
39256;SDS011;67272;48.066;11.038;2023-02-28T10:51:03;8.20;;;7.33;;
39256;SDS011;67272;48.066;11.038;2023-02-28T10:54:02;12.80;;;10.30;;
39256;SDS011;67272;48.066;11.038;2023-02-28T10:56:22;10.37;;;7.50;;
39256;SDS011;67272;48.066;11.038;2023-02-28T11:03:56;9.27;;;6.10;;
39256;SDS011;67272;48.066;11.038;2023-02-28T11:06:23;10.17;;;6.97;;
39256;SDS011;67272;48.066;11.038;2023-02-28T11:09:00;8.90;;;5.30;;
39256;SDS011;67272;48.066;11.038;2023-02-28T11:11:27;8.30;;;5.90;;
39256;SDS011;67272;48.066;11.038;2023-02-28T11:13:56;7.30;;;5.90;;
39256;SDS011;67272;48.066;11.038;2023-02-28T11:16:30;10.50;;;8.63;;
39256;SDS011;67272;48.066;11.038;2023-02-28T11:18:57;9.67;;;6.57;;
39256;SDS011;67272;48.066;11.038;2023-02-28T11:23:51;9.53;;;6.73;;
39256;SDS011;67272;48.066;11.038;2023-02-28T11:26:35;12.63;;;8.03;;
39256;SDS011;67272;48.066;11.038;2023-02-28T11:29:09;9.47;;;7.27;;
39256;SDS011;67272;48.066;11.038;2023-02-28T11:31:36;9.77;;;7.87;;
39256;SDS011;67272;48.066;11.038;2023-02-28T11:34:11;11.70;;;8.00;;
39256;SDS011;67272;48.066;11.038;2023-02-28T11:36:47;7.13;;;4.17;;
39256;SDS011;67272;48.066;11.038;2023-02-28T11:39:13;5.83;;;4.93;;
39256;SDS011;67272;48.066;11.038;2023-02-28T11:44:19;13.57;;;8.70;;
39256;SDS011;67272;48.066;11.038;2023-02-28T12:00:02;9.13;;;5.67;;
39256;SDS011;67272;48.066;11.038;2023-02-28T12:02:50;10.77;;;6.40;;
39256;SDS011;67272;48.066;11.038;2023-02-28T12:05:28;5.67;;;3.97;;
39256;SDS011;67272;48.066;11.038;2023-02-28T12:10:57;11.70;;;7.43;;
39256;SDS011;67272;48.066;11.038;2023-02-28T12:16:13;9.07;;;7.67;;
39256;SDS011;67272;48.066;11.038;2023-02-28T12:21:48;9.33;;;7.20;;
39256;SDS011;67272;48.066;11.038;2023-02-28T12:26:52;9.80;;;8.70;;
39256;SDS011;67272;48.066;11.038;2023-02-28T12:29:19;8.27;;;7.33;;
39256;SDS011;67272;48.066;11.038;2023-02-28T12:32:12;10.27;;;7.70;;
39256;SDS011;67272;48.066;11.038;2023-02-28T12:34:44;9.50;;;8.50;;
39256;SDS011;67272;48.066;11.038;2023-02-28T12:37:15;10.63;;;8.43;;
39256;SDS011;67272;48.066;11.038;2023-02-28T12:39:48;10.40;;;9.30;;
39256;SDS011;67272;48.066;11.038;2023-02-28T12:42:19;9.47;;;8.43;;
39256;SDS011;67272;48.066;11.038;2023-02-28T12:44:51;9.30;;;8.00;;
39256;SDS011;67272;48.066;11.038;2023-02-28T12:47:18;10.20;;;8.23;;
39256;SDS011;67272;48.066;11.038;2023-02-28T12:50:00;10.07;;;8.87;;
39256;SDS011;67272;48.066;11.038;2023-02-28T12:55:15;12.00;;;9.13;;
39256;SDS011;67272;48.066;11.038;2023-02-28T12:57:52;10.97;;;9.00;;
39256;SDS011;67272;48.066;11.038;2023-02-28T13:00:23;8.67;;;7.20;;
39256;SDS011;67272;48.066;11.038;2023-02-28T13:05:32;9.60;;;8.40;;
39256;SDS011;67272;48.066;11.038;2023-02-28T13:10:38;9.47;;;8.57;;
39256;SDS011;67272;48.066;11.038;2023-02-28T13:13:05;10.97;;;9.73;;
39256;SDS011;67272;48.066;11.038;2023-02-28T13:15:31;8.83;;;7.93;;
39256;SDS011;67272;48.066;11.038;2023-02-28T13:18:03;8.90;;;8.03;;
39256;SDS011;67272;48.066;11.038;2023-02-28T13:22:58;9.93;;;8.93;;
39256;SDS011;67272;48.066;11.038;2023-02-28T13:28:11;11.40;;;9.50;;
39256;SDS011;67272;48.066;11.038;2023-02-28T13:35:43;18.80;;;12.53;;
39256;SDS011;67272;48.066;11.038;2023-02-28T13:38:18;14.77;;;10.77;;
39256;SDS011;67272;48.066;11.038;2023-02-28T13:40:47;10.43;;;8.83;;
39256;SDS011;67272;48.066;11.038;2023-02-28T13:43:13;12.37;;;9.90;;
39256;SDS011;67272;48.066;11.038;2023-02-28T13:46:11;10.23;;;7.83;;
39256;SDS011;67272;48.066;11.038;2023-02-28T13:48:28;9.97;;;8.97;;
39256;SDS011;67272;48.066;11.038;2023-02-28T13:50:55;9.47;;;8.13;;
39256;SDS011;67272;48.066;11.038;2023-02-28T13:53:44;11.60;;;10.37;;
39256;SDS011;67272;48.066;11.038;2023-02-28T13:56:22;9.10;;;7.03;;
39256;SDS011;67272;48.066;11.038;2023-02-28T13:59:06;9.63;;;8.67;;
39256;SDS011;67272;48.066;11.038;2023-02-28T14:04:45;9.93;;;8.93;;
39256;SDS011;67272;48.066;11.038;2023-02-28T14:07:21;9.53;;;8.40;;
39256;SDS011;67272;48.066;11.038;2023-02-28T14:09:54;9.13;;;8.20;;
39256;SDS011;67272;48.066;11.038;2023-02-28T14:15:27;8.90;;;7.10;;
39256;SDS011;67272;48.066;11.038;2023-02-28T14:17:55;9.47;;;7.20;;
39256;SDS011;67272;48.066;11.038;2023-02-28T14:20:23;10.93;;;7.97;;
39256;SDS011;67272;48.066;11.038;2023-02-28T14:31:32;7.77;;;6.17;;
39256;SDS011;67272;48.066;11.038;2023-02-28T14:36:45;9.03;;;6.97;;
39256;SDS011;67272;48.066;11.038;2023-02-28T14:39:12;10.30;;;7.20;;
39256;SDS011;67272;48.066;11.038;2023-02-28T14:41:40;11.17;;;7.63;;
39256;SDS011;67272;48.066;11.038;2023-02-28T14:44:22;11.13;;;7.47;;
39256;SDS011;67272;48.066;11.038;2023-02-28T14:46:53;8.13;;;6.77;;
39256;SDS011;67272;48.066;11.038;2023-02-28T14:51:45;8.77;;;6.80;;
39256;SDS011;67272;48.066;11.038;2023-02-28T14:54:13;9.33;;;7.67;;
39256;SDS011;67272;48.066;11.038;2023-02-28T14:56:40;11.47;;;7.97;;
39256;SDS011;67272;48.066;11.038;2023-02-28T14:59:20;8.50;;;7.07;;
39256;SDS011;67272;48.066;11.038;2023-02-28T15:01:48;8.47;;;7.43;;
39256;SDS011;67272;48.066;11.038;2023-02-28T15:04:18;8.73;;;5.20;;
39256;SDS011;67272;48.066;11.038;2023-02-28T15:06:46;7.47;;;6.57;;
39256;SDS011;67272;48.066;11.038;2023-02-28T15:09:17;8.57;;;6.37;;
39256;SDS011;67272;48.066;11.038;2023-02-28T15:11:47;9.80;;;7.67;;
39256;SDS011;67272;48.066;11.038;2023-02-28T15:14:18;10.07;;;7.87;;
39256;SDS011;67272;48.066;11.038;2023-02-28T15:16:44;9.70;;;7.13;;
39256;SDS011;67272;48.066;11.038;2023-02-28T15:19:28;10.75;;;9.75;;
39256;SDS011;67272;48.066;11.038;2023-02-28T15:21:57;9.97;;;7.93;;
39256;SDS011;67272;48.066;11.038;2023-02-28T15:24:27;10.47;;;7.90;;
39256;SDS011;67272;48.066;11.038;2023-02-28T15:26:59;9.40;;;6.47;;
39256;SDS011;67272;48.066;11.038;2023-02-28T15:29:26;16.80;;;14.73;;
39256;SDS011;67272;48.066;11.038;2023-02-28T15:31:58;37.20;;;26.77;;
39256;SDS011;67272;48.066;11.038;2023-02-28T15:34:39;17.10;;;12.37;;
39256;SDS011;67272;48.066;11.038;2023-02-28T15:39:50;11.03;;;8.83;;
39256;SDS011;67272;48.066;11.038;2023-02-28T15:42:19;9.17;;;8.13;;
39256;SDS011;67272;48.066;11.038;2023-02-28T15:44:46;11.70;;;8.70;;
39256;SDS011;67272;48.066;11.038;2023-02-28T15:47:22;12.77;;;7.70;;
39256;SDS011;67272;48.066;11.038;2023-02-28T15:49:49;9.93;;;8.70;;
39256;SDS011;67272;48.066;11.038;2023-02-28T15:52:18;12.23;;;10.27;;
39256;SDS011;67272;48.066;11.038;2023-02-28T15:54:44;13.27;;;9.83;;
39256;SDS011;67272;48.066;11.038;2023-02-28T15:57:19;11.03;;;9.53;;
39256;SDS011;67272;48.066;11.038;2023-02-28T15:59:54;8.97;;;7.17;;
39256;SDS011;67272;48.066;11.038;2023-02-28T16:02:41;11.80;;;8.50;;
39256;SDS011;67272;48.066;11.038;2023-02-28T16:07:37;10.03;;;6.77;;
39256;SDS011;67272;48.066;11.038;2023-02-28T16:10:04;10.37;;;7.73;;
39256;SDS011;67272;48.066;11.038;2023-02-28T16:12:32;9.13;;;6.27;;
39256;SDS011;67272;48.066;11.038;2023-02-28T16:15:00;8.90;;;7.07;;
39256;SDS011;67272;48.066;11.038;2023-02-28T16:17:31;9.70;;;6.87;;
39256;SDS011;67272;48.066;11.038;2023-02-28T16:19:58;9.50;;;7.30;;
39256;SDS011;67272;48.066;11.038;2023-02-28T16:22:25;8.13;;;6.80;;
39256;SDS011;67272;48.066;11.038;2023-02-28T16:24:51;14.00;;;9.23;;
39256;SDS011;67272;48.066;11.038;2023-02-28T16:29:43;8.83;;;7.93;;
39256;SDS011;67272;48.066;11.038;2023-02-28T16:32:10;11.30;;;8.43;;
39256;SDS011;67272;48.066;11.038;2023-02-28T16:34:37;8.83;;;7.77;;
39256;SDS011;67272;48.066;11.038;2023-02-28T16:37:05;9.07;;;7.33;;
39256;SDS011;67272;48.066;11.038;2023-02-28T16:39:35;9.57;;;7.23;;
39256;SDS011;67272;48.066;11.038;2023-02-28T16:42:02;11.60;;;8.00;;